KOWD/OWD METAR and TAF weather

Enter ICAO airport designator
Station Type Date Time Source
KOWD METAR 2024/07/23 16:53 UTC NOAA

KOWD 231653Z 13005KT 10SM BKN039 BKN049 OVC060 24/19 A3006 RMK AO2 SLP178 T02440194


Station Type Date Time Source
KOWD Decoded METAR 2024/07/23 16:53 UTC NOAA

NORWOOD MEMORIAL AIRPORT, MA, United States (KOWD) 42-11N 71-10W 19M
Jul 23, 2024 - 12:53 PM EDT / 2024.07.23 1653 UTC
Wind: from the SE (130 degrees) at 6 MPH (5 KT):0
Visibility: 10 mile(s):0
Sky conditions: overcast
Temperature: 75.9 F (24.4 C)
Dew Point: 66.9 F (19.4 C)
Relative Humidity: 73%
Pressure (altimeter): 30.06 in. Hg (1017 hPa)
ob: KOWD 231653Z 13005KT 10SM BKN039 BKN049 OVC060 24/19 A3006 RMK AO2 SLP178 T02440194
cycle: 17

Station Type Date Time Source
KOWD TAF UTC NOAA

Error!

Example: see airport list